Time;durP1;ratioP1;P1;durP2;ratioP2;P2;SDS_P1;SDS_P2;PMS_P1;PMS_P2;Temp;Humidity;BMP_temperature;BMP_pressure;BME280_temperature;BME280_humidity;BME280_pressure;Samples;Min_cycle;Max_cycle;Signal;HPM_P1;HPM_P2
2022/01/13 00:01:26;;;;;;;7.58;4.37;;;;;;;-10.05;58.73;101926.47;1744483;82;20929;-74
2022/01/13 00:03:48;;;;;;;5.58;3.10;;;;;;;-10.03;58.80;101930.81;1744331;81;20964;-75
2022/01/13 00:06:15;;;;;;;9.15;4.80;;;;;;;-10.00;58.89;101933.91;1744558;81;21103;-74
2022/01/13 00:08:43;;;;;;;4.90;4.10;;;;;;;-10.01;58.91;101939.36;1744413;81;21450;-76
2022/01/13 00:11:10;;;;;;;4.78;4.00;;;;;;;-10.03;59.19;101938.83;1744569;81;20932;-74
2022/01/13 00:13:51;;;;;;;6.75;3.80;;;;;;;-10.04;59.35;101945.58;1744351;82;21011;-75
2022/01/13 00:16:38;;;;;;;5.12;3.72;;;;;;;-10.08;59.48;101942.83;1744498;82;20925;-75
2022/01/13 00:19:05;;;;;;;4.83;4.00;;;;;;;-10.18;59.62;101943.20;1743991;81;21347;-75
2022/01/13 00:21:40;;;;;;;8.18;4.28;;;;;;;-10.28;59.99;101944.05;1743941;81;21343;-73
2022/01/13 00:24:03;;;;;;;6.15;3.65;;;;;;;-10.34;60.20;101948.86;1743614;81;20917;-75
2022/01/13 00:26:32;;;;;;;9.13;4.28;;;;;;;-10.38;60.74;101949.55;1744477;81;20976;-74
2022/01/13 00:29:02;;;;;;;6.92;3.98;;;;;;;-10.44;60.76;101954.33;1744433;81;20972;-75
2022/01/13 00:31:32;;;;;;;5.35;3.00;;;;;;;-10.47;60.94;101949.09;1744394;81;21985;-75
2022/01/13 00:34:01;;;;;;;5.92;4.60;;;;;;;-10.55;61.11;101950.42;1744720;82;20885;-74
2022/01/13 00:36:31;;;;;;;5.10;3.33;;;;;;;-10.68;61.33;101948.95;1744505;82;20878;-76
2022/01/13 00:38:58;;;;;;;7.70;4.40;;;;;;;-10.79;61.69;101952.23;1745031;82;20924;-76
2022/01/13 00:41:29;;;;;;;5.97;3.65;;;;;;;-10.88;62.14;101950.53;1744586;82;20908;-77
2022/01/13 00:43:57;;;;;;;9.70;4.33;;;;;;;-10.95;62.49;101939.63;1744826;82;21537;-74
2022/01/13 00:46:30;;;;;;;6.42;3.35;;;;;;;-11.01;62.85;101939.33;1744388;81;20905;-75
2022/01/13 00:48:57;;;;;;;11.25;4.78;;;;;;;-11.05;63.01;101942.09;1745109;81;21402;-74
2022/01/13 00:51:24;;;;;;;7.08;4.37;;;;;;;-11.08;63.23;101940.28;1744761;82;21403;-74
2022/01/13 00:53:52;;;;;;;7.42;4.55;;;;;;;-11.10;63.38;101944.80;1759329;81;20889;-75
2022/01/13 00:56:18;;;;;;;8.55;4.30;;;;;;;-11.10;63.66;101940.60;1746195;82;21491;-75
2022/01/13 00:58:45;;;;;;;5.15;4.03;;;;;;;-11.07;63.86;101943.30;1745295;81;20893;-76
2022/01/13 01:01:12;;;;;;;8.20;3.55;;;;;;;-11.06;63.68;101944.17;1700443;83;20932;-75
2022/01/13 01:03:40;;;;;;;7.50;4.72;;;;;;;-11.09;63.76;101947.83;1708597;82;20908;-75
2022/01/13 01:06:07;;;;;;;8.48;5.50;;;;;;;-11.15;64.01;101948.78;1708847;84;21022;-75
2022/01/13 01:08:34;;;;;;;5.58;4.10;;;;;;;-11.18;64.27;101947.34;1708517;82;21985;-76
2022/01/13 01:11:03;;;;;;;9.05;5.08;;;;;;;-11.19;64.35;101947.75;1708522;84;20896;-74
2022/01/13 01:13:32;;;;;;;5.40;4.60;;;;;;;-11.23;64.44;101951.32;1708986;84;21526;-74
2022/01/13 01:16:04;;;;;;;8.03;3.87;;;;;;;-11.24;64.67;101953.39;1708834;84;20932;-75
2022/01/13 01:24:31;;;;;;;5.05;4.35;;;;;;;-11.47;65.07;101945.11;1744898;82;20889;-74
2022/01/13 01:29:04;;;;;;;5.12;3.77;;;;;;;-11.49;65.36;101948.36;1744447;81;20948;-73
2022/01/13 01:31:30;;;;;;;5.80;4.37;;;;;;;-11.52;65.39;101944.39;1743311;81;20932;-74
2022/01/13 01:34:03;;;;;;;7.40;4.47;;;;;;;-11.56;65.44;101940.85;1744178;81;21331;-74
2022/01/13 01:36:19;;;;;;;7.72;4.03;;;;;;;-11.57;65.66;101942.03;1743750;81;20877;-74
2022/01/13 01:38:50;;;;;;;7.37;4.28;;;;;;;-11.57;65.57;101944.55;1744536;80;20968;-74
2022/01/13 01:41:17;;;;;;;6.37;4.58;;;;;;;-11.61;65.47;101947.31;1744405;81;20902;-74
2022/01/13 01:43:45;;;;;;;7.53;4.58;;;;;;;-11.69;65.74;101949.86;1744677;82;21401;-74
2022/01/13 01:46:14;;;;;;;6.03;4.42;;;;;;;-11.71;65.93;101960.30;1744559;81;21756;-74
2022/01/13 01:48:40;;;;;;;7.83;4.55;;;;;;;-11.72;65.93;101956.88;1744745;82;20987;-73
2022/01/13 01:51:07;;;;;;;6.12;3.75;;;;;;;-11.76;65.90;101951.20;1744446;82;21383;-75
2022/01/13 01:53:35;;;;;;;10.95;5.78;;;;;;;-11.78;66.04;101955.31;1744417;81;20948;-75
2022/01/13 01:56:02;;;;;;;8.23;4.45;;;;;;;-11.78;66.17;101956.95;1744521;82;21379;-74
2022/01/13 01:58:29;;;;;;;11.38;5.20;;;;;;;-11.77;66.13;101948.19;1744454;81;21151;-74
2022/01/13 02:00:56;;;;;;;6.00;4.05;;;;;;;-11.80;66.03;101956.03;1744391;82;21343;-74
2022/01/13 02:03:24;;;;;;;6.22;4.00;;;;;;;-11.90;66.05;101953.42;1744306;82;20945;-74
2022/01/13 02:05:52;;;;;;;7.40;3.80;;;;;;;-11.95;66.22;101953.19;1744493;81;21027;-74
2022/01/13 02:08:20;;;;;;;10.13;4.10;;;;;;;-11.98;66.34;101971.10;1689081;83;21497;-73
2022/01/13 02:10:47;;;;;;;8.10;6.10;;;;;;;-12.03;66.11;101970.00;1716384;82;21019;-73
2022/01/13 02:13:20;;;;;;;6.80;4.25;;;;;;;-12.13;66.28;101969.91;1733614;82;20977;-74
2022/01/13 02:16:00;;;;;;;5.60;3.35;;;;;;;-12.17;66.32;101971.39;1715865;83;20991;-75
2022/01/13 02:18:12;;;;;;;3.87;2.98;;;;;;;-12.20;66.39;101974.17;1714082;82;21095;-74
2022/01/13 02:20:45;;;;;;;3.60;3.30;;;;;;;-12.23;66.14;101979.03;1717850;83;21418;-74
2022/01/13 02:23:12;;;;;;;5.58;3.92;;;;;;;-12.32;65.64;101979.41;1716678;82;21106;-74
2022/01/13 02:25:38;;;;;;;6.12;3.90;;;;;;;-12.38;65.56;101982.85;1716187;83;20995;-73
2022/01/13 02:28:05;;;;;;;6.37;4.03;;;;;;;-12.42;65.57;101974.66;1716505;83;20943;-75
2022/01/13 02:30:32;;;;;;;7.00;4.12;;;;;;;-12.46;65.69;101977.39;1716338;83;21445;-74
2022/01/13 02:32:59;;;;;;;3.20;2.92;;;;;;;-12.45;65.56;101981.64;1716475;83;20931;-76
2022/01/13 02:35:33;;;;;;;5.62;3.83;;;;;;;-12.45;65.49;101985.43;1716427;83;21782;-77
2022/01/13 02:38:00;;;;;;;;;;;;;;;-12.47;65.40;101977.30;1692439;83;20943;-77
2022/01/13 02:40:27;;;;;;;6.25;3.72;;;;;;;-12.49;64.98;101977.59;1700572;84;20395;-77
2022/01/13 02:42:54;;;;;;;6.62;3.30;;;;;;;-12.56;64.83;101983.60;1708708;83;21407;-76
2022/01/13 02:45:33;;;;;;;8.93;4.17;;;;;;;-12.61;64.93;101981.59;1708395;83;20987;-75
2022/01/13 02:48:25;;;;;;;4.25;3.65;;;;;;;-12.65;64.81;101985.58;1707756;84;21176;-75
2022/01/13 02:50:29;;;;;;;6.72;3.55;;;;;;;-12.70;64.42;101978.55;1704045;84;21423;-76
2022/01/13 02:52:56;;;;;;;5.60;3.80;;;;;;;-12.79;64.36;101987.73;1708273;84;20897;-75
2022/01/13 02:55:23;;;;;;;5.33;3.80;;;;;;;-12.85;64.24;101989.91;1708485;84;20877;-75
2022/01/13 02:57:50;;;;;;;4.53;3.30;;;;;;;-12.90;64.37;101988.39;1708627;84;20916;-74
2022/01/13 03:00:17;;;;;;;3.90;2.52;;;;;;;-12.92;64.22;101992.87;1708503;83;21163;-76
2022/01/13 03:02:47;;;;;;;6.95;3.42;;;;;;;-12.94;64.20;101992.41;1708451;83;21359;-75
2022/01/13 03:05:14;;;;;;;4.72;2.80;;;;;;;-12.96;64.24;101993.08;1708409;83;21506;-75
2022/01/13 03:07:41;;;;;;;3.95;3.65;;;;;;;-12.97;64.56;102005.23;1708537;84;20937;-74
2022/01/13 03:10:10;;;;;;;3.87;3.00;;;;;;;-12.98;64.40;102000.95;1708673;83;21043;-75
2022/01/13 03:12:41;;;;;;;7.78;3.87;;;;;;;-12.99;64.46;102001.34;1708827;84;21167;-75
2022/01/13 03:15:07;;;;;;;3.10;2.90;;;;;;;-12.98;64.36;102004.73;1708466;84;20905;-75
2022/01/13 03:17:34;;;;;;;6.03;4.40;;;;;;;-12.99;64.46;102005.53;1708786;83;20945;-75
2022/01/13 03:20:02;;;;;;;7.30;3.45;;;;;;;-12.95;64.66;102009.58;1708882;83;20905;-76
2022/01/13 03:22:31;;;;;;;7.10;3.67;;;;;;;-12.92;64.50;102005.09;1708849;84;20960;-76
2022/01/13 03:24:58;;;;;;;7.03;2.52;;;;;;;-12.94;64.54;102005.40;1700660;84;21174;-74
2022/01/13 03:27:33;;;;;;;4.47;3.05;;;;;;;-12.97;64.36;102011.15;1696537;84;20959;-74
2022/01/13 03:29:53;;;;;;;7.47;4.00;;;;;;;-13.03;64.31;102006.13;1694819;84;20916;-75
2022/01/13 03:32:20;;;;;;;7.08;3.40;;;;;;;-13.09;64.36;101996.57;1696550;84;21541;-74
2022/01/13 03:34:48;;;;;;;5.25;3.05;;;;;;;-13.10;64.48;102008.69;1696625;84;21538;-75
2022/01/13 03:37:15;;;;;;;4.35;2.90;;;;;;;-13.12;64.38;102017.83;1696701;84;21475;-75
2022/01/13 03:39:42;;;;;;;9.05;2.98;;;;;;;-13.15;64.13;102018.52;1696210;84;20913;-74
2022/01/13 03:42:09;;;;;;;5.40;3.17;;;;;;;-13.18;64.13;102018.75;1696644;84;21023;-75
2022/01/13 03:44:36;;;;;;;2.83;2.50;;;;;;;-13.21;64.19;102016.89;1697780;84;20900;-77
2022/01/13 03:47:04;;;;;;;8.53;3.80;;;;;;;-13.25;64.27;102010.31;1696523;84;20933;-76
2022/01/13 03:49:32;;;;;;;3.58;3.25;;;;;;;-13.24;64.54;102013.34;1696303;84;21593;-77
2022/01/13 03:52:05;;;;;;;6.40;3.22;;;;;;;-13.20;64.54;102017.79;1696469;84;21011;-75
2022/01/13 03:54:38;;;;;;;6.17;2.85;;;;;;;-13.19;64.39;102009.42;1692390;84;20952;-75
2022/01/13 03:57:10;;;;;;;8.68;3.27;;;;;;;-13.17;64.43;102008.73;1696712;84;20984;-76
2022/01/13 04:00:09;;;;;;;4.33;3.30;;;;;;;-13.16;64.34;102009.22;1696267;84;21485;-76
2022/01/13 04:02:37;;;;;;;7.37;4.10;;;;;;;-13.17;64.25;101992.32;1695892;84;21192;-75
2022/01/13 04:05:04;;;;;;;6.72;4.12;;;;;;;-13.17;64.28;101997.77;1696665;84;20948;-75
2022/01/13 04:07:32;;;;;;;7.15;4.10;;;;;;;-13.15;64.36;102001.25;1696485;84;20979;-76
2022/01/13 04:10:07;;;;;;;3.65;3.35;;;;;;;-13.13;64.25;102008.53;1711462;83;21032;-76
2022/01/13 04:12:35;;;;;;;5.47;3.60;;;;;;;-13.11;64.00;102009.49;1721837;83;20917;-75
2022/01/13 04:15:02;;;;;;;4.40;3.30;;;;;;;-13.13;65.22;102013.58;1721727;83;21503;-74
2022/01/13 04:17:31;;;;;;;4.17;2.83;;;;;;;-13.13;64.52;101997.17;1721680;83;21474;-75
2022/01/13 04:19:58;;;;;;;3.08;2.67;;;;;;;-13.18;64.29;102003.61;1721628;83;20993;-76
2022/01/13 04:22:25;;;;;;;8.58;2.60;;;;;;;-13.25;64.34;102009.95;1722080;83;20945;-75
2022/01/13 04:24:52;;;;;;;13.10;4.53;;;;;;;-13.28;64.35;102007.66;1721663;83;20949;-75
2022/01/13 04:27:24;;;;;;;7.95;3.85;;;;;;;-13.33;64.26;102013.70;1722162;83;21109;-74
2022/01/13 04:32:38;;;;;;;6.70;3.85;;;;;;;-13.30;64.29;101996.60;1721851;83;21012;-75
2022/01/13 04:35:07;;;;;;;7.75;4.12;;;;;;;-13.30;64.33;102016.39;1721845;83;21419;-76
2022/01/13 04:37:34;;;;;;;5.22;3.58;;;;;;;-13.30;64.21;102011.73;1722162;83;20922;-76
2022/01/13 04:40:01;;;;;;;5.00;3.58;;;;;;;-13.32;64.31;102009.52;1721725;83;21224;-76
2022/01/13 04:42:34;;;;;;;9.95;4.60;;;;;;;-13.33;64.48;102010.31;1721941;83;20933;-75
2022/01/13 04:44:57;;;;;;;6.25;3.70;;;;;;;-13.36;64.49;102010.61;1721281;83;20998;-76
2022/01/13 04:47:24;;;;;;;6.05;3.92;;;;;;;-13.38;64.60;102021.00;1721784;83;20925;-76
2022/01/13 04:49:51;;;;;;;7.10;3.90;;;;;;;-13.34;64.72;102017.38;1722373;83;20938;-76
2022/01/13 04:52:18;;;;;;;5.15;3.02;;;;;;;-13.33;64.58;102021.66;1722580;83;21151;-76
2022/01/13 04:54:45;;;;;;;6.40;3.65;;;;;;;-13.33;64.69;102009.05;1723187;83;20910;-76
2022/01/13 04:57:17;;;;;;;4.85;3.60;;;;;;;-13.30;64.84;102011.34;1723400;83;21459;-76
2022/01/13 04:59:44;;;;;;;9.48;5.00;;;;;;;-13.25;65.25;102016.26;1723615;83;20926;-75
2022/01/13 05:02:11;;;;;;;10.40;4.15;;;;;;;-13.19;65.04;102018.25;1724760;83;20933;-76
2022/01/13 05:04:39;;;;;;;5.42;4.30;;;;;;;-13.18;64.78;102023.41;1725017;82;21092;-76
2022/01/13 05:07:06;;;;;;;4.53;3.02;;;;;;;-13.21;64.61;102040.00;1724588;83;20918;-78
2022/01/13 05:09:33;;;;;;;9.00;3.58;;;;;;;-13.26;64.56;102041.39;1724219;83;20934;-77
2022/01/13 05:12:02;;;;;;;5.25;4.42;;;;;;;-13.32;65.11;102035.61;1724737;83;20958;-77
2022/01/13 05:14:30;;;;;;;5.97;3.60;;;;;;;-13.34;64.90;102038.83;1725103;83;20977;-76
2022/01/13 05:17:12;;;;;;;7.97;3.80;;;;;;;-13.36;65.20;102038.72;1724867;83;21076;-77
2022/01/13 05:19:45;;;;;;;10.43;4.03;;;;;;;-13.36;65.21;102042.14;1724123;78;20993;-76
2022/01/13 05:22:15;;;;;;;9.05;4.25;;;;;;;-13.36;65.19;102042.14;1722340;82;20927;-76
2022/01/13 05:24:35;;;;;;;13.00;5.47;;;;;;;-13.37;65.27;102042.04;1692852;83;21365;-76
2022/01/13 05:27:02;;;;;;;9.48;4.80;;;;;;;-13.37;65.46;102035.34;1694384;83;20911;-73
2022/01/13 05:29:29;;;;;;;8.30;4.83;;;;;;;-13.34;65.52;102035.05;1694201;84;21113;-75
2022/01/13 05:31:56;;;;;;;7.53;4.28;;;;;;;-13.30;65.58;102028.14;1693744;84;20962;-76
2022/01/13 05:34:22;;;;;;;4.45;3.55;;;;;;;-13.29;65.70;102018.52;1694024;84;20991;-77
2022/01/13 05:36:49;;;;;;;7.40;3.77;;;;;;;-13.27;65.57;102030.80;1694882;84;20982;-77
2022/01/13 05:39:16;;;;;;;7.97;4.33;;;;;;;-13.23;65.64;102021.38;1695475;84;20938;-77
2022/01/13 05:41:43;;;;;;;6.78;4.25;;;;;;;-13.19;65.70;102015.73;1695514;84;22402;-77
2022/01/13 05:44:10;;;;;;;10.15;3.98;;;;;;;-13.14;65.82;102025.70;1695715;84;20942;-78
2022/01/13 05:46:37;;;;;;;7.62;4.53;;;;;;;-13.05;65.75;102031.28;1694633;84;20947;-77
2022/01/13 05:49:04;;;;;;;6.40;4.00;;;;;;;-12.98;65.57;102018.62;1696251;84;20961;-77
2022/01/13 05:51:32;;;;;;;7.03;4.30;;;;;;;-12.94;65.53;102022.70;1696102;84;20935;-76
2022/01/13 05:53:58;;;;;;;10.32;4.80;;;;;;;-12.94;65.30;102025.23;1695816;84;21427;-76
2022/01/13 05:56:26;;;;;;;12.37;5.08;;;;;;;-12.91;65.47;102027.42;1693781;84;20888;-76
2022/01/13 05:58:53;;;;;;;4.87;3.90;;;;;;;-12.87;65.65;102025.56;1693786;83;21400;-77
2022/01/13 06:01:20;;;;;;;6.53;4.08;;;;;;;-12.80;65.54;102022.63;1693093;83;21057;-77
2022/01/13 06:03:47;;;;;;;6.58;4.60;;;;;;;-12.75;65.42;102028.80;1693347;83;21401;-76
2022/01/13 06:06:13;;;;;;;9.48;5.00;;;;;;;-12.70;65.65;102032.85;1693036;84;21130;-76
2022/01/13 06:08:41;;;;;;;19.65;5.72;;;;;;;-12.65;65.56;102026.40;1692991;84;21495;-77
2022/01/13 06:11:08;;;;;;;13.93;3.98;;;;;;;-12.58;65.72;102027.22;1692891;84;21107;-77
2022/01/13 06:13:35;;;;;;;5.00;3.55;;;;;;;-12.49;65.58;102032.81;1692882;84;21405;-78
2022/01/13 06:16:03;;;;;;;5.25;3.42;;;;;;;-12.39;65.48;102048.09;1692767;83;20899;-77
2022/01/13 06:18:30;;;;;;;8.13;4.10;;;;;;;-12.31;65.34;102031.70;1692910;84;21155;-76
2022/01/13 06:20:57;;;;;;;6.33;4.03;;;;;;;-12.24;65.10;102032.92;1692756;84;20978;-77
2022/01/13 06:23:24;;;;;;;7.58;3.90;;;;;;;-12.20;64.82;102030.64;1692785;83;20875;-79
2022/01/13 06:25:51;;;;;;;3.77;2.60;;;;;;;-12.19;64.62;102034.03;1692685;83;20939;-77
2022/01/13 06:28:18;;;;;;;10.60;4.28;;;;;;;-12.18;64.40;102034.13;1691578;83;21624;-76
2022/01/13 06:30:45;;;;;;;7.17;4.35;;;;;;;-12.13;64.26;102040.70;1692108;84;21153;-76
2022/01/13 06:33:12;;;;;;;9.38;4.75;;;;;;;-12.12;64.13;102038.63;1693609;84;20919;-76
2022/01/13 06:35:39;;;;;;;13.22;4.50;;;;;;;-12.09;64.19;102031.23;1692930;83;20990;-76
2022/01/13 06:38:05;;;;;;;11.50;5.85;;;;;;;-12.03;64.28;102025.23;1692976;83;20908;-77
2022/01/13 06:40:32;;;;;;;8.53;4.87;;;;;;;-11.97;64.29;102025.97;1693237;83;20979;-77
2022/01/13 06:42:59;;;;;;;6.05;4.28;;;;;;;-11.85;64.23;102034.56;1693165;83;22168;-76
2022/01/13 06:45:26;;;;;;;4.90;3.85;;;;;;;-11.80;63.55;102041.62;1693156;83;20944;-75
2022/01/13 06:47:53;;;;;;;7.87;3.83;;;;;;;-11.76;63.20;102027.09;1692947;84;20942;-75
2022/01/13 06:50:20;;;;;;;6.60;4.25;;;;;;;-11.78;63.06;102029.94;1693179;83;20990;-75
2022/01/13 06:52:47;;;;;;;6.20;4.42;;;;;;;-11.78;62.89;102044.22;1692985;84;21424;-74
2022/01/13 06:55:14;;;;;;;3.72;2.80;;;;;;;-11.77;63.09;102035.45;1693134;84;21045;-75
2022/01/13 06:57:41;;;;;;;8.78;4.45;;;;;;;-11.74;62.84;102043.59;1692954;83;20998;-74
2022/01/13 07:00:10;;;;;;;9.70;5.22;;;;;;;-11.74;62.98;102043.20;1693118;83;21110;-75
2022/01/13 07:02:37;;;;;;;5.12;3.17;;;;;;;-11.72;63.04;102040.36;1692839;83;20975;-75
2022/01/13 07:05:05;;;;;;;5.65;3.87;;;;;;;-11.69;62.95;102041.81;1692848;84;20998;-75
2022/01/13 07:07:35;;;;;;;6.20;3.77;;;;;;;-11.68;63.03;102048.59;1692968;83;21420;-75
2022/01/13 07:10:03;;;;;;;6.45;4.15;;;;;;;-11.66;62.97;102041.09;1689072;83;20956;-76
2022/01/13 07:12:30;;;;;;;5.62;3.85;;;;;;;-11.66;62.97;102038.56;1736142;82;20984;-77
2022/01/13 07:14:57;;;;;;;5.22;4.12;;;;;;;-11.62;62.99;102045.53;1736071;82;20932;-77
2022/01/13 07:17:25;;;;;;;9.90;5.08;;;;;;;-11.58;62.91;102036.05;1736208;81;20881;-77
2022/01/13 07:19:52;;;;;;;12.70;4.22;;;;;;;-11.55;62.98;102041.66;1736031;82;21124;-76
2022/01/13 07:22:19;;;;;;;10.38;5.10;;;;;;;-11.49;63.14;102026.81;1736119;82;20944;-76
2022/01/13 07:24:46;;;;;;;7.37;4.15;;;;;;;-11.43;63.29;102014.86;1736065;81;20889;-76
2022/01/13 07:27:13;;;;;;;9.63;4.72;;;;;;;-11.31;63.12;102014.23;1736175;82;21450;-77
2022/01/13 07:29:42;;;;;;;7.95;5.47;;;;;;;-11.24;63.14;102015.02;1736279;82;21397;-77
2022/01/13 07:32:12;;;;;;;5.87;3.95;;;;;;;-11.21;63.10;101998.70;1736306;82;20999;-76
2022/01/13 07:34:39;;;;;;;8.08;3.95;;;;;;;-11.15;62.89;102000.70;1736442;82;20897;-76
2022/01/13 07:37:06;;;;;;;7.30;3.95;;;;;;;-11.14;62.69;102006.22;1736134;82;21354;-76
2022/01/13 07:39:35;;;;;;;10.05;4.45;;;;;;;-11.13;62.62;102006.30;1736018;82;20904;-76
2022/01/13 07:42:04;;;;;;;5.55;3.90;;;;;;;-11.09;62.75;102007.34;1736177;82;21427;-78
2022/01/13 07:44:31;;;;;;;7.70;3.98;;;;;;;-11.06;62.49;102013.81;1736516;82;21095;-78
2022/01/13 07:47:00;;;;;;;7.83;4.53;;;;;;;-11.04;62.68;102017.70;1736281;82;20980;-77
2022/01/13 07:49:28;;;;;;;9.63;4.15;;;;;;;-10.98;62.71;102014.19;1736446;82;20940;-77
2022/01/13 07:51:56;;;;;;;10.70;5.12;;;;;;;-10.92;62.73;102003.09;1736055;82;20949;-75
2022/01/13 07:54:25;;;;;;;9.88;4.70;;;;;;;-10.86;62.79;102000.88;1736355;82;20827;-76
2022/01/13 07:56:53;;;;;;;11.90;5.42;;;;;;;-10.79;62.66;101991.51;1737635;81;20858;-75
2022/01/13 07:59:20;;;;;;;7.87;4.62;;;;;;;-10.70;62.82;101987.29;1736598;82;20941;-76
2022/01/13 08:01:47;;;;;;;10.90;6.05;;;;;;;-10.55;62.84;101994.37;1736170;82;20874;-77
2022/01/13 08:04:17;;;;;;;10.55;4.92;;;;;;;-10.42;62.86;101997.09;1736271;81;20944;-77
2022/01/13 08:06:43;;;;;;;15.63;7.90;;;;;;;-10.30;62.80;101990.05;1736154;82;20973;-76
2022/01/13 08:09:09;;;;;;;14.20;6.33;;;;;;;-10.18;62.80;101983.41;1736447;82;21468;-75
2022/01/13 08:11:36;;;;;;;17.67;7.72;;;;;;;-10.08;62.57;101978.34;1741795;81;20920;-76
2022/01/13 08:14:03;;;;;;;18.62;8.73;;;;;;;-10.00;62.18;101977.05;1744687;82;20921;-74
2022/01/13 08:16:34;;;;;;;19.50;6.53;;;;;;;-9.94;61.80;101964.61;1744296;81;20943;-75
2022/01/13 08:21:45;;;;;;;13.98;5.30;;;;;;;-9.85;61.69;101961.62;1744228;82;21562;-75
2022/01/13 08:24:12;;;;;;;18.85;4.70;;;;;;;-9.77;61.61;101957.77;1744443;80;20880;-75
2022/01/13 08:26:38;;;;;;;22.60;5.85;;;;;;;-9.76;61.52;101947.20;1744303;82;20983;-76
2022/01/13 08:29:07;;;;;;;11.80;6.28;;;;;;;-9.76;61.56;101948.47;1744177;81;20920;-74
2022/01/13 08:31:34;;;;;;;15.50;4.97;;;;;;;-9.79;61.30;101939.06;1744266;82;20889;-75
2022/01/13 08:34:01;;;;;;;19.17;7.28;;;;;;;-9.86;61.38;101948.07;1744466;82;21646;-77
2022/01/13 08:36:28;;;;;;;10.25;5.53;;;;;;;-9.86;61.46;101934.52;1744118;81;21022;-77
2022/01/13 08:38:55;;;;;;;10.60;4.22;;;;;;;-9.90;61.40;101935.18;1744304;81;20976;-75
2022/01/13 08:41:22;;;;;;;9.83;4.40;;;;;;;-9.90;61.59;101928.84;1744358;82;21418;-76
2022/01/13 08:43:51;;;;;;;12.60;5.03;;;;;;;-9.87;61.40;101934.93;1744367;82;20938;-76
2022/01/13 08:46:18;;;;;;;12.47;4.97;;;;;;;-9.88;61.33;101929.37;1744253;81;21128;-77
2022/01/13 08:48:45;;;;;;;9.55;5.75;;;;;;;-9.90;61.45;101921.23;1744091;82;21513;-76
2022/01/13 08:51:12;;;;;;;11.10;6.05;;;;;;;-9.88;61.52;101936.98;1744213;81;20893;-76
2022/01/13 08:53:39;;;;;;;10.00;4.35;;;;;;;-9.86;61.66;101931.98;1744529;82;21047;-76
2022/01/13 08:56:06;;;;;;;7.22;4.33;;;;;;;-9.82;61.55;101930.92;1744262;81;20900;-75
2022/01/13 08:58:33;;;;;;;6.25;4.10;;;;;;;-9.75;61.63;101921.04;1744340;82;21100;-75
2022/01/13 09:01:01;;;;;;;7.65;4.30;;;;;;;-9.69;61.81;101927.63;1743997;82;20897;-75
2022/01/13 09:03:28;;;;;;;13.32;4.40;;;;;;;-9.68;61.60;101923.04;1744478;81;20893;-75
2022/01/13 09:05:56;;;;;;;8.33;4.65;;;;;;;-9.66;61.74;101916.36;1744204;81;20944;-77
2022/01/13 09:08:23;;;;;;;11.97;5.40;;;;;;;-9.59;61.72;101916.67;1744551;82;20897;-76
2022/01/13 09:10:50;;;;;;;8.60;4.40;;;;;;;-9.56;61.51;101912.13;1742122;81;21116;-77
2022/01/13 09:13:17;;;;;;;8.05;4.40;;;;;;;-9.52;61.25;101912.73;1736253;82;20889;-76
2022/01/13 09:15:56;;;;;;;5.17;3.62;;;;;;;-9.51;61.27;101902.20;1736109;82;20889;-77
2022/01/13 09:18:19;;;;;;;6.97;5.12;;;;;;;-9.50;61.33;101897.57;1734691;82;20897;-78
2022/01/13 09:20:46;;;;;;;13.32;6.58;;;;;;;-9.55;61.27;101893.57;1737226;82;20873;-81
2022/01/13 09:23:13;;;;;;;12.43;6.62;;;;;;;-9.57;61.51;101898.98;1736421;82;21124;-78
2022/01/13 09:25:40;;;;;;;8.85;5.05;;;;;;;-9.51;61.65;101885.70;1736094;82;20976;-76
2022/01/13 09:28:07;;;;;;;9.08;5.42;;;;;;;-9.43;61.71;101878.83;1736030;81;20850;-76
2022/01/13 09:30:34;;;;;;;12.23;6.45;;;;;;;-9.39;61.68;101878.16;1735871;82;21414;-76
2022/01/13 09:33:02;;;;;;;17.67;7.90;;;;;;;-9.33;61.49;101870.36;1735969;82;20992;-77
2022/01/13 09:35:28;;;;;;;24.00;7.12;;;;;;;-9.31;61.66;101870.87;1735951;82;21126;-76
2022/01/13 09:37:55;;;;;;;22.05;7.42;;;;;;;-9.20;62.00;101872.19;1735926;81;20853;-76
2022/01/13 09:40:22;;;;;;;11.78;6.25;;;;;;;-9.09;62.04;101868.81;1736093;81;20933;-79
2022/01/13 09:42:49;;;;;;;16.52;7.92;;;;;;;-9.02;61.46;101873.73;1735913;82;20929;-77
2022/01/13 09:45:16;;;;;;;26.30;10.72;;;;;;;-9.06;61.25;101864.25;1736142;82;21411;-77
2022/01/13 09:47:43;;;;;;;25.45;9.83;;;;;;;-9.08;61.49;101859.51;1736055;82;21551;-81
2022/01/13 09:50:14;;;;;;;20.95;9.05;;;;;;;-9.06;61.70;101850.28;1735035;82;21234;-78
2022/01/13 09:52:41;;;;;;;20.77;9.68;;;;;;;-8.96;61.99;101851.09;1734895;81;20999;-78
2022/01/13 09:55:09;;;;;;;32.20;10.35;;;;;;;-8.85;62.05;101844.74;1736059;82;20960;-80
2022/01/13 09:57:38;;;;;;;20.90;10.03;;;;;;;-8.73;62.00;101845.65;1736181;82;20995;-79
2022/01/13 10:00:08;;;;;;;23.75;11.10;;;;;;;-8.63;61.81;101836.68;1715638;82;21570;-81
2022/01/13 10:02:36;;;;;;;30.43;13.35;;;;;;;-8.51;61.80;101839.70;1736133;81;20928;-80
2022/01/13 10:05:04;;;;;;;23.18;12.05;;;;;;;-8.40;61.72;101839.66;1736130;82;20964;-80
2022/01/13 10:07:45;;;;;;;30.35;12.80;;;;;;;-8.27;61.69;101842.64;1736402;81;20973;-83
2022/01/13 10:10:15;;;;;;;25.77;12.05;;;;;;;-8.16;61.53;101840.97;1736275;81;21462;-80
2022/01/13 10:12:48;;;;;;;19.92;10.50;;;;;;;-8.06;61.29;101840.88;1748546;81;22089;-82
2022/01/13 10:18:05;;;;;;;37.65;13.18;;;;;;;-7.93;60.54;101817.59;1750428;82;21078;-82
2022/01/13 10:20:33;;;;;;;26.30;12.55;;;;;;;-7.97;60.15;101831.02;1750127;82;20944;-80
2022/01/13 10:23:09;;;;;;;25.00;11.45;;;;;;;-8.06;60.01;101831.11;1750456;82;21449;-82
2022/01/13 10:26:47;;;;;;;30.08;10.90;;;;;;;-8.09;60.50;101825.52;1798616;79;22695;-80
2022/01/13 10:29:14;;;;;;;22.10;9.45;;;;;;;-8.10;60.55;101823.77;1757189;80;20956;-81
2022/01/13 10:31:50;;;;;;;20.43;11.33;;;;;;;-8.07;60.59;101823.00;1758530;81;21503;-81
2022/01/13 10:34:28;;;;;;;17.87;8.75;;;;;;;-8.02;60.56;101821.09;1758395;81;20908;-82
2022/01/13 10:37:06;;;;;;;17.10;7.92;;;;;;;-7.98;60.41;101818.23;1758801;81;20935;-83
2022/01/13 10:39:57;;;;;;;19.95;8.30;;;;;;;-7.96;60.53;101811.52;1739298;81;20967;-83
2022/01/13 10:45:18;;;;;;;15.00;9.05;;;;;;;-7.83;60.82;101804.77;1726121;83;21136;-82
2022/01/13 10:48:00;;;;;;;22.80;8.00;;;;;;;-7.75;60.69;101803.77;1724580;83;20962;-82
2022/01/13 10:50:47;;;;;;;14.85;7.55;;;;;;;-7.66;60.44;101786.25;1724886;83;21469;-81
2022/01/13 10:53:29;;;;;;;12.40;7.10;;;;;;;-7.60;60.11;101777.55;1709517;83;21638;-82
2022/01/13 10:56:05;;;;;;;26.05;8.48;;;;;;;-7.53;60.00;101774.79;1684739;85;21499;-82
2022/01/13 10:58:35;;;;;;;20.75;9.15;;;;;;;-7.48;59.87;101765.61;1681347;85;21186;-83
2022/01/13 11:01:03;;;;;;;22.25;7.92;;;;;;;-7.42;59.58;101748.39;1685132;85;21446;-76
2022/01/13 11:03:33;;;;;;;15.25;8.73;;;;;;;-7.44;59.38;101747.06;1681592;85;20960;-80
2022/01/13 11:06:05;;;;;;;26.50;9.60;;;;;;;-7.43;59.59;101751.33;1684546;85;21450;-79
2022/01/13 11:08:41;;;;;;;19.98;9.28;;;;;;;-7.38;59.52;101747.64;1681233;85;21410;-82
2022/01/13 11:11:25;;;;;;;22.85;9.25;;;;;;;-7.35;59.63;101739.70;1684687;85;21538;-80
2022/01/13 11:13:54;;;;;;;15.88;7.05;;;;;;;-7.31;59.24;101740.67;1681022;85;20912;-79
2022/01/13 11:16:22;;;;;;;17.62;9.18;;;;;;;-7.37;59.10;101740.48;1684657;85;21459;-82
2022/01/13 11:18:49;;;;;;;15.32;7.62;;;;;;;-7.44;58.99;101748.75;1681936;85;21017;-81
2022/01/13 11:21:16;;;;;;;27.93;11.22;;;;;;;-7.51;59.17;101738.36;1685169;85;21021;-81
2022/01/13 11:23:45;;;;;;;23.27;8.93;;;;;;;-7.50;59.30;101729.89;1709742;84;21119;-81
2022/01/13 11:26:14;;;;;;;23.62;10.85;;;;;;;-7.47;59.31;101738.03;1664762;85;20926;-75
2022/01/13 11:28:40;;;;;;;20.60;9.60;;;;;;;-7.42;59.33;101738.20;1662701;85;20992;-76
2022/01/13 11:31:08;;;;;;;17.65;9.18;;;;;;;-7.36;59.44;101740.53;1675878;85;20957;-76
2022/01/13 11:33:35;;;;;;;15.38;8.15;;;;;;;-7.33;59.24;101729.56;1676109;85;20925;-77
2022/01/13 11:36:03;;;;;;;20.50;9.88;;;;;;;-7.30;59.25;101736.02;1650780;85;21561;-77
2022/01/13 11:38:30;;;;;;;21.97;10.40;;;;;;;-7.25;59.35;101733.61;1675621;85;20921;-74
2022/01/13 11:41:04;;;;;;;22.20;10.78;;;;;;;-7.21;59.09;101736.30;1675361;85;20905;-77
2022/01/13 11:43:40;;;;;;;27.05;12.58;;;;;;;-7.15;58.94;101737.77;1674987;85;20920;-76